sensor_id;sensor_type;location;lat;lon;timestamp;P1;durP1;ratioP1;P2;durP2;ratioP2
56161;SDS011;42045;52.986;6.014;2023-08-17T00:01:37;6.43;;;5.13;;
56161;SDS011;42045;52.986;6.014;2023-08-17T00:04:03;6.95;;;4.38;;
56161;SDS011;42045;52.986;6.014;2023-08-17T00:06:28;7.28;;;4.55;;
56161;SDS011;42045;52.986;6.014;2023-08-17T00:08:54;6.85;;;4.97;;
56161;SDS011;42045;52.986;6.014;2023-08-17T00:11:20;8.05;;;4.53;;
56161;SDS011;42045;52.986;6.014;2023-08-17T00:13:46;5.78;;;4.47;;
56161;SDS011;42045;52.986;6.014;2023-08-17T00:16:12;5.97;;;4.68;;
56161;SDS011;42045;52.986;6.014;2023-08-17T00:18:38;6.82;;;4.63;;
56161;SDS011;42045;52.986;6.014;2023-08-17T00:21:04;7.30;;;4.70;;
56161;SDS011;42045;52.986;6.014;2023-08-17T00:23:29;7.80;;;4.30;;
56161;SDS011;42045;52.986;6.014;2023-08-17T00:25:55;9.57;;;5.43;;
56161;SDS011;42045;52.986;6.014;2023-08-17T00:28:21;9.10;;;4.90;;
56161;SDS011;42045;52.986;6.014;2023-08-17T00:30:46;6.43;;;4.90;;
56161;SDS011;42045;52.986;6.014;2023-08-17T00:33:12;6.75;;;4.78;;
56161;SDS011;42045;52.986;6.014;2023-08-17T00:35:38;7.18;;;4.95;;
56161;SDS011;42045;52.986;6.014;2023-08-17T00:38:03;9.45;;;4.38;;
56161;SDS011;42045;52.986;6.014;2023-08-17T00:40:29;12.93;;;4.80;;
56161;SDS011;42045;52.986;6.014;2023-08-17T00:42:55;8.45;;;4.57;;
56161;SDS011;42045;52.986;6.014;2023-08-17T00:45:21;10.23;;;4.43;;
56161;SDS011;42045;52.986;6.014;2023-08-17T00:47:48;9.75;;;4.40;;
56161;SDS011;42045;52.986;6.014;2023-08-17T00:50:14;9.05;;;4.75;;
56161;SDS011;42045;52.986;6.014;2023-08-17T00:52:41;12.95;;;4.97;;
56161;SDS011;42045;52.986;6.014;2023-08-17T00:55:07;9.88;;;4.40;;
56161;SDS011;42045;52.986;6.014;2023-08-17T00:57:34;9.75;;;5.07;;
56161;SDS011;42045;52.986;6.014;2023-08-17T01:00:01;7.72;;;4.90;;
56161;SDS011;42045;52.986;6.014;2023-08-17T01:02:27;12.48;;;5.38;;
56161;SDS011;42045;52.986;6.014;2023-08-17T01:04:53;8.68;;;5.10;;
56161;SDS011;42045;52.986;6.014;2023-08-17T01:07:19;10.98;;;5.28;;
56161;SDS011;42045;52.986;6.014;2023-08-17T01:09:45;6.55;;;4.65;;
56161;SDS011;42045;52.986;6.014;2023-08-17T01:12:17;9.35;;;5.07;;
56161;SDS011;42045;52.986;6.014;2023-08-17T01:17:45;9.18;;;5.32;;
56161;SDS011;42045;52.986;6.014;2023-08-17T01:20:12;8.45;;;5.32;;
56161;SDS011;42045;52.986;6.014;2023-08-17T01:22:40;8.40;;;5.55;;
56161;SDS011;42045;52.986;6.014;2023-08-17T01:25:08;6.60;;;4.95;;
56161;SDS011;42045;52.986;6.014;2023-08-17T01:27:39;14.07;;;5.70;;
56161;SDS011;42045;52.986;6.014;2023-08-17T01:30:06;10.85;;;6.13;;
56161;SDS011;42045;52.986;6.014;2023-08-17T01:32:42;8.20;;;4.95;;
56161;SDS011;42045;52.986;6.014;2023-08-17T01:35:16;9.18;;;5.10;;
56161;SDS011;42045;52.986;6.014;2023-08-17T01:37:53;8.02;;;5.38;;
56161;SDS011;42045;52.986;6.014;2023-08-17T01:40:21;11.40;;;5.85;;
56161;SDS011;42045;52.986;6.014;2023-08-17T01:42:48;9.25;;;5.47;;
56161;SDS011;42045;52.986;6.014;2023-08-17T01:45:15;10.70;;;5.40;;
56161;SDS011;42045;52.986;6.014;2023-08-17T01:47:42;8.25;;;4.95;;
56161;SDS011;42045;52.986;6.014;2023-08-17T01:50:07;7.93;;;4.88;;
56161;SDS011;42045;52.986;6.014;2023-08-17T01:52:33;7.95;;;5.20;;
56161;SDS011;42045;52.986;6.014;2023-08-17T01:55:00;9.57;;;4.97;;
56161;SDS011;42045;52.986;6.014;2023-08-17T01:57:25;9.93;;;4.65;;
56161;SDS011;42045;52.986;6.014;2023-08-17T01:59:51;9.30;;;5.10;;
56161;SDS011;42045;52.986;6.014;2023-08-17T02:02:17;8.52;;;4.93;;
56161;SDS011;42045;52.986;6.014;2023-08-17T02:04:42;10.68;;;4.78;;
56161;SDS011;42045;52.986;6.014;2023-08-17T02:07:08;8.93;;;5.20;;
56161;SDS011;42045;52.986;6.014;2023-08-17T02:09:34;10.10;;;5.60;;
56161;SDS011;42045;52.986;6.014;2023-08-17T02:11:59;12.20;;;6.20;;
56161;SDS011;42045;52.986;6.014;2023-08-17T02:14:25;8.70;;;5.57;;
56161;SDS011;42045;52.986;6.014;2023-08-17T02:16:51;11.50;;;5.25;;
56161;SDS011;42045;52.986;6.014;2023-08-17T02:19:17;11.75;;;5.32;;
56161;SDS011;42045;52.986;6.014;2023-08-17T02:21:43;10.68;;;5.32;;
56161;SDS011;42045;52.986;6.014;2023-08-17T02:24:10;9.73;;;5.38;;
56161;SDS011;42045;52.986;6.014;2023-08-17T02:26:35;11.18;;;5.57;;
56161;SDS011;42045;52.986;6.014;2023-08-17T02:29:03;7.82;;;5.43;;
56161;SDS011;42045;52.986;6.014;2023-08-17T02:31:29;9.00;;;4.75;;
56161;SDS011;42045;52.986;6.014;2023-08-17T02:33:55;10.52;;;6.35;;
56161;SDS011;42045;52.986;6.014;2023-08-17T02:36:25;9.85;;;6.13;;
56161;SDS011;42045;52.986;6.014;2023-08-17T02:38:51;8.38;;;5.45;;
56161;SDS011;42045;52.986;6.014;2023-08-17T02:41:18;10.02;;;5.72;;
56161;SDS011;42045;52.986;6.014;2023-08-17T02:43:44;10.80;;;6.22;;
56161;SDS011;42045;52.986;6.014;2023-08-17T02:46:09;8.25;;;5.68;;
56161;SDS011;42045;52.986;6.014;2023-08-17T02:48:35;10.85;;;6.80;;
56161;SDS011;42045;52.986;6.014;2023-08-17T02:51:01;7.25;;;5.20;;
56161;SDS011;42045;52.986;6.014;2023-08-17T02:53:27;8.27;;;6.15;;
56161;SDS011;42045;52.986;6.014;2023-08-17T02:55:52;12.88;;;5.72;;
56161;SDS011;42045;52.986;6.014;2023-08-17T02:58:18;9.13;;;5.30;;
56161;SDS011;42045;52.986;6.014;2023-08-17T03:00:44;6.10;;;5.28;;
56161;SDS011;42045;52.986;6.014;2023-08-17T03:03:10;8.25;;;5.00;;
56161;SDS011;42045;52.986;6.014;2023-08-17T03:05:35;7.68;;;5.30;;
56161;SDS011;42045;52.986;6.014;2023-08-17T03:08:01;10.20;;;6.10;;
56161;SDS011;42045;52.986;6.014;2023-08-17T03:10:27;11.23;;;5.30;;
56161;SDS011;42045;52.986;6.014;2023-08-17T03:12:52;11.90;;;6.18;;
56161;SDS011;42045;52.986;6.014;2023-08-17T03:15:18;8.30;;;5.60;;
56161;SDS011;42045;52.986;6.014;2023-08-17T03:17:44;9.77;;;5.13;;
56161;SDS011;42045;52.986;6.014;2023-08-17T03:20:09;7.43;;;5.28;;
56161;SDS011;42045;52.986;6.014;2023-08-17T03:22:35;7.47;;;5.68;;
56161;SDS011;42045;52.986;6.014;2023-08-17T03:25:01;8.32;;;5.60;;
56161;SDS011;42045;52.986;6.014;2023-08-17T03:27:27;8.93;;;5.50;;
56161;SDS011;42045;52.986;6.014;2023-08-17T03:29:53;10.20;;;6.20;;
56161;SDS011;42045;52.986;6.014;2023-08-17T03:32:19;8.95;;;5.95;;
56161;SDS011;42045;52.986;6.014;2023-08-17T03:34:45;8.63;;;5.88;;
56161;SDS011;42045;52.986;6.014;2023-08-17T03:37:11;7.30;;;5.28;;
56161;SDS011;42045;52.986;6.014;2023-08-17T03:39:36;11.90;;;5.88;;
56161;SDS011;42045;52.986;6.014;2023-08-17T03:42:02;14.55;;;5.88;;
56161;SDS011;42045;52.986;6.014;2023-08-17T03:44:28;10.05;;;5.80;;
56161;SDS011;42045;52.986;6.014;2023-08-17T03:46:53;6.90;;;4.95;;
56161;SDS011;42045;52.986;6.014;2023-08-17T03:49:19;7.30;;;4.97;;
56161;SDS011;42045;52.986;6.014;2023-08-17T03:51:45;11.48;;;6.25;;
56161;SDS011;42045;52.986;6.014;2023-08-17T03:54:12;9.23;;;5.75;;
56161;SDS011;42045;52.986;6.014;2023-08-17T03:56:38;7.45;;;5.50;;
56161;SDS011;42045;52.986;6.014;2023-08-17T03:59:03;9.38;;;5.80;;
56161;SDS011;42045;52.986;6.014;2023-08-17T04:01:29;10.55;;;5.28;;
56161;SDS011;42045;52.986;6.014;2023-08-17T04:03:55;9.57;;;4.95;;
56161;SDS011;42045;52.986;6.014;2023-08-17T04:06:21;8.48;;;5.18;;
56161;SDS011;42045;52.986;6.014;2023-08-17T04:08:47;8.68;;;5.57;;
56161;SDS011;42045;52.986;6.014;2023-08-17T04:11:13;10.13;;;6.22;;
56161;SDS011;42045;52.986;6.014;2023-08-17T04:13:38;8.52;;;5.40;;
56161;SDS011;42045;52.986;6.014;2023-08-17T04:16:04;8.40;;;5.07;;
56161;SDS011;42045;52.986;6.014;2023-08-17T04:18:30;6.80;;;5.10;;
56161;SDS011;42045;52.986;6.014;2023-08-17T04:20:55;6.70;;;5.55;;
56161;SDS011;42045;52.986;6.014;2023-08-17T04:23:21;7.47;;;5.15;;
56161;SDS011;42045;52.986;6.014;2023-08-17T04:25:47;8.50;;;5.10;;
56161;SDS011;42045;52.986;6.014;2023-08-17T04:28:13;8.93;;;5.50;;
56161;SDS011;42045;52.986;6.014;2023-08-17T04:30:39;11.82;;;5.55;;
56161;SDS011;42045;52.986;6.014;2023-08-17T04:33:05;9.48;;;5.72;;
56161;SDS011;42045;52.986;6.014;2023-08-17T04:35:32;8.05;;;5.63;;
56161;SDS011;42045;52.986;6.014;2023-08-17T04:37:58;9.30;;;5.78;;
56161;SDS011;42045;52.986;6.014;2023-08-17T04:40:24;7.57;;;5.32;;
56161;SDS011;42045;52.986;6.014;2023-08-17T04:42:50;11.70;;;6.03;;
56161;SDS011;42045;52.986;6.014;2023-08-17T04:45:15;12.70;;;6.82;;
56161;SDS011;42045;52.986;6.014;2023-08-17T04:47:41;12.20;;;6.35;;
56161;SDS011;42045;52.986;6.014;2023-08-17T04:50:07;9.93;;;5.72;;
56161;SDS011;42045;52.986;6.014;2023-08-17T04:52:33;9.77;;;5.45;;
56161;SDS011;42045;52.986;6.014;2023-08-17T04:54:59;11.32;;;5.82;;
56161;SDS011;42045;52.986;6.014;2023-08-17T04:57:24;11.32;;;6.40;;
56161;SDS011;42045;52.986;6.014;2023-08-17T04:59:51;11.80;;;5.63;;
56161;SDS011;42045;52.986;6.014;2023-08-17T05:02:16;10.98;;;5.47;;
56161;SDS011;42045;52.986;6.014;2023-08-17T05:04:42;11.77;;;5.75;;
56161;SDS011;42045;52.986;6.014;2023-08-17T05:07:08;15.93;;;6.47;;
56161;SDS011;42045;52.986;6.014;2023-08-17T05:09:33;8.40;;;5.93;;
56161;SDS011;42045;52.986;6.014;2023-08-17T05:11:59;10.55;;;5.80;;
56161;SDS011;42045;52.986;6.014;2023-08-17T05:14:25;10.88;;;6.28;;
56161;SDS011;42045;52.986;6.014;2023-08-17T05:16:51;9.45;;;5.70;;
56161;SDS011;42045;52.986;6.014;2023-08-17T05:19:16;10.02;;;6.10;;
56161;SDS011;42045;52.986;6.014;2023-08-17T05:21:42;12.13;;;5.43;;
56161;SDS011;42045;52.986;6.014;2023-08-17T05:24:07;8.20;;;4.38;;
56161;SDS011;42045;52.986;6.014;2023-08-17T05:26:33;13.85;;;6.00;;
56161;SDS011;42045;52.986;6.014;2023-08-17T05:28:59;8.30;;;4.68;;
56161;SDS011;42045;52.986;6.014;2023-08-17T05:31:25;9.25;;;4.75;;
56161;SDS011;42045;52.986;6.014;2023-08-17T05:33:50;6.20;;;4.32;;
56161;SDS011;42045;52.986;6.014;2023-08-17T05:36:16;11.35;;;5.40;;
56161;SDS011;42045;52.986;6.014;2023-08-17T05:38:42;8.48;;;4.53;;
56161;SDS011;42045;52.986;6.014;2023-08-17T05:41:08;5.85;;;4.18;;
56161;SDS011;42045;52.986;6.014;2023-08-17T05:43:34;9.02;;;4.20;;
56161;SDS011;42045;52.986;6.014;2023-08-17T05:45:59;14.48;;;5.68;;
56161;SDS011;42045;52.986;6.014;2023-08-17T05:48:25;8.15;;;3.88;;
56161;SDS011;42045;52.986;6.014;2023-08-17T05:50:51;7.55;;;4.22;;
56161;SDS011;42045;52.986;6.014;2023-08-17T05:53:17;5.55;;;3.60;;
56161;SDS011;42045;52.986;6.014;2023-08-17T05:55:42;9.27;;;3.80;;
56161;SDS011;42045;52.986;6.014;2023-08-17T05:58:08;6.65;;;3.42;;
56161;SDS011;42045;52.986;6.014;2023-08-17T06:00:34;5.40;;;3.50;;
56161;SDS011;42045;52.986;6.014;2023-08-17T06:03:00;6.28;;;3.00;;
56161;SDS011;42045;52.986;6.014;2023-08-17T06:05:29;6.97;;;2.95;;
56161;SDS011;42045;52.986;6.014;2023-08-17T06:07:55;5.97;;;3.28;;
56161;SDS011;42045;52.986;6.014;2023-08-17T06:10:22;5.78;;;2.42;;
56161;SDS011;42045;52.986;6.014;2023-08-17T06:12:52;4.90;;;2.78;;
56161;SDS011;42045;52.986;6.014;2023-08-17T06:15:21;8.38;;;2.58;;
56161;SDS011;42045;52.986;6.014;2023-08-17T06:17:48;4.35;;;2.03;;
56161;SDS011;42045;52.986;6.014;2023-08-17T06:20:16;5.50;;;2.47;;
56161;SDS011;42045;52.986;6.014;2023-08-17T06:22:43;4.78;;;2.17;;
56161;SDS011;42045;52.986;6.014;2023-08-17T06:25:09;4.45;;;1.80;;
56161;SDS011;42045;52.986;6.014;2023-08-17T06:27:35;6.78;;;2.30;;
56161;SDS011;42045;52.986;6.014;2023-08-17T06:30:04;4.00;;;2.00;;
56161;SDS011;42045;52.986;6.014;2023-08-17T06:32:31;5.60;;;2.55;;
56161;SDS011;42045;52.986;6.014;2023-08-17T06:34:57;4.15;;;1.98;;
56161;SDS011;42045;52.986;6.014;2023-08-17T06:37:23;5.80;;;1.95;;
56161;SDS011;42045;52.986;6.014;2023-08-17T06:39:48;6.00;;;2.13;;
56161;SDS011;42045;52.986;6.014;2023-08-17T06:42:14;5.65;;;1.83;;
56161;SDS011;42045;52.986;6.014;2023-08-17T06:44:40;4.80;;;1.75;;
56161;SDS011;42045;52.986;6.014;2023-08-17T06:47:06;4.47;;;1.73;;
56161;SDS011;42045;52.986;6.014;2023-08-17T06:49:31;4.90;;;1.95;;
56161;SDS011;42045;52.986;6.014;2023-08-17T06:51:57;3.40;;;1.83;;
56161;SDS011;42045;52.986;6.014;2023-08-17T06:54:23;3.78;;;1.95;;
56161;SDS011;42045;52.986;6.014;2023-08-17T06:56:48;3.45;;;1.77;;
56161;SDS011;42045;52.986;6.014;2023-08-17T06:59:14;16.60;;;2.42;;
56161;SDS011;42045;52.986;6.014;2023-08-17T07:01:40;4.85;;;1.85;;
56161;SDS011;42045;52.986;6.014;2023-08-17T07:04:06;5.10;;;2.10;;
56161;SDS011;42045;52.986;6.014;2023-08-17T07:06:31;7.10;;;2.22;;
56161;SDS011;42045;52.986;6.014;2023-08-17T07:08:57;6.70;;;2.30;;
56161;SDS011;42045;52.986;6.014;2023-08-17T07:11:23;4.53;;;2.65;;
56161;SDS011;42045;52.986;6.014;2023-08-17T07:13:48;5.78;;;2.22;;
56161;SDS011;42045;52.986;6.014;2023-08-17T07:16:14;8.20;;;1.90;;
56161;SDS011;42045;52.986;6.014;2023-08-17T07:18:40;6.63;;;2.00;;
56161;SDS011;42045;52.986;6.014;2023-08-17T07:21:06;10.90;;;2.13;;
56161;SDS011;42045;52.986;6.014;2023-08-17T07:23:32;7.22;;;2.30;;
56161;SDS011;42045;52.986;6.014;2023-08-17T07:25:57;7.75;;;2.50;;
56161;SDS011;42045;52.986;6.014;2023-08-17T07:28:23;6.80;;;2.00;;
56161;SDS011;42045;52.986;6.014;2023-08-17T07:30:49;6.50;;;2.00;;
56161;SDS011;42045;52.986;6.014;2023-08-17T07:33:14;5.65;;;2.42;;
56161;SDS011;42045;52.986;6.014;2023-08-17T07:35:40;7.32;;;1.92;;
56161;SDS011;42045;52.986;6.014;2023-08-17T07:38:06;9.05;;;2.35;;
56161;SDS011;42045;52.986;6.014;2023-08-17T07:40:31;6.50;;;2.33;;
56161;SDS011;42045;52.986;6.014;2023-08-17T07:42:57;4.88;;;2.75;;
56161;SDS011;42045;52.986;6.014;2023-08-17T07:45:23;7.20;;;2.42;;
56161;SDS011;42045;52.986;6.014;2023-08-17T07:47:48;6.28;;;2.40;;
56161;SDS011;42045;52.986;6.014;2023-08-17T07:50:14;4.97;;;2.58;;
56161;SDS011;42045;52.986;6.014;2023-08-17T07:52:39;3.78;;;2.10;;
56161;SDS011;42045;52.986;6.014;2023-08-17T07:55:06;4.85;;;2.22;;
56161;SDS011;42045;52.986;6.014;2023-08-17T07:57:31;4.60;;;2.35;;
56161;SDS011;42045;52.986;6.014;2023-08-17T07:59:57;8.45;;;2.78;;
56161;SDS011;42045;52.986;6.014;2023-08-17T08:02:23;6.18;;;2.03;;
56161;SDS011;42045;52.986;6.014;2023-08-17T08:04:48;7.30;;;2.53;;
56161;SDS011;42045;52.986;6.014;2023-08-17T08:07:14;5.15;;;2.38;;
56161;SDS011;42045;52.986;6.014;2023-08-17T08:09:40;7.18;;;2.60;;
56161;SDS011;42045;52.986;6.014;2023-08-17T08:12:06;4.78;;;1.90;;
56161;SDS011;42045;52.986;6.014;2023-08-17T08:14:33;6.82;;;2.78;;
56161;SDS011;42045;52.986;6.014;2023-08-17T08:16:59;7.43;;;2.10;;
56161;SDS011;42045;52.986;6.014;2023-08-17T08:19:24;7.63;;;2.88;;
56161;SDS011;42045;52.986;6.014;2023-08-17T08:21:50;5.18;;;2.03;;
56161;SDS011;42045;52.986;6.014;2023-08-17T08:24:16;4.97;;;2.15;;
56161;SDS011;42045;52.986;6.014;2023-08-17T08:26:42;5.10;;;2.10;;
56161;SDS011;42045;52.986;6.014;2023-08-17T08:29:07;6.68;;;2.25;;
56161;SDS011;42045;52.986;6.014;2023-08-17T08:31:33;6.70;;;2.33;;
56161;SDS011;42045;52.986;6.014;2023-08-17T08:33:58;3.78;;;1.88;;
56161;SDS011;42045;52.986;6.014;2023-08-17T08:36:24;4.45;;;1.85;;
56161;SDS011;42045;52.986;6.014;2023-08-17T08:38:50;6.55;;;2.03;;
56161;SDS011;42045;52.986;6.014;2023-08-17T08:41:16;5.82;;;2.00;;
56161;SDS011;42045;52.986;6.014;2023-08-17T08:43:42;6.80;;;2.35;;
56161;SDS011;42045;52.986;6.014;2023-08-17T08:46:08;4.68;;;1.80;;
56161;SDS011;42045;52.986;6.014;2023-08-17T08:48:34;5.40;;;1.70;;
56161;SDS011;42045;52.986;6.014;2023-08-17T08:51:03;3.97;;;1.90;;
56161;SDS011;42045;52.986;6.014;2023-08-17T08:53:37;6.80;;;1.90;;
56161;SDS011;42045;52.986;6.014;2023-08-17T08:56:04;4.25;;;1.90;;
56161;SDS011;42045;52.986;6.014;2023-08-17T08:58:35;5.10;;;1.88;;
56161;SDS011;42045;52.986;6.014;2023-08-17T09:01:02;7.10;;;2.22;;
56161;SDS011;42045;52.986;6.014;2023-08-17T09:03:28;6.28;;;2.45;;
56161;SDS011;42045;52.986;6.014;2023-08-17T09:05:57;5.25;;;1.85;;
56161;SDS011;42045;52.986;6.014;2023-08-17T09:08:25;5.10;;;1.65;;
56161;SDS011;42045;52.986;6.014;2023-08-17T09:10:55;2.83;;;1.50;;
56161;SDS011;42045;52.986;6.014;2023-08-17T09:13:20;5.35;;;2.33;;
56161;SDS011;42045;52.986;6.014;2023-08-17T09:15:46;6.38;;;1.73;;
56161;SDS011;42045;52.986;6.014;2023-08-17T09:18:12;20.45;;;2.40;;
56161;SDS011;42045;52.986;6.014;2023-08-17T09:20:41;3.67;;;2.00;;
56161;SDS011;42045;52.986;6.014;2023-08-17T09:23:17;6.32;;;1.90;;
56161;SDS011;42045;52.986;6.014;2023-08-17T09:25:45;6.40;;;2.00;;
56161;SDS011;42045;52.986;6.014;2023-08-17T09:28:12;6.18;;;1.92;;
56161;SDS011;42045;52.986;6.014;2023-08-17T09:30:59;6.18;;;2.03;;
56161;SDS011;42045;52.986;6.014;2023-08-17T09:33:26;4.88;;;1.92;;
56161;SDS011;42045;52.986;6.014;2023-08-17T09:35:54;4.35;;;2.13;;
56161;SDS011;42045;52.986;6.014;2023-08-17T09:38:21;6.80;;;2.47;;
56161;SDS011;42045;52.986;6.014;2023-08-17T09:40:47;5.57;;;1.80;;
56161;SDS011;42045;52.986;6.014;2023-08-17T09:43:14;4.35;;;1.83;;
56161;SDS011;42045;52.986;6.014;2023-08-17T09:45:40;6.10;;;1.85;;
56161;SDS011;42045;52.986;6.014;2023-08-17T09:48:14;6.30;;;1.88;;
56161;SDS011;42045;52.986;6.014;2023-08-17T09:50:44;4.00;;;1.90;;
56161;SDS011;42045;52.986;6.014;2023-08-17T09:53:14;7.93;;;2.17;;
56161;SDS011;42045;52.986;6.014;2023-08-17T09:55:42;4.40;;;2.03;;
56161;SDS011;42045;52.986;6.014;2023-08-17T09:58:08;3.90;;;1.58;;
56161;SDS011;42045;52.986;6.014;2023-08-17T10:00:34;4.30;;;1.80;;
56161;SDS011;42045;52.986;6.014;2023-08-17T10:03:02;5.70;;;1.75;;
56161;SDS011;42045;52.986;6.014;2023-08-17T10:05:31;9.50;;;2.70;;
56161;SDS011;42045;52.986;6.014;2023-08-17T10:08:03;5.82;;;1.92;;
56161;SDS011;42045;52.986;6.014;2023-08-17T10:10:32;7.45;;;2.08;;
56161;SDS011;42045;52.986;6.014;2023-08-17T10:13:05;5.53;;;2.03;;
56161;SDS011;42045;52.986;6.014;2023-08-17T10:15:37;5.00;;;1.75;;
56161;SDS011;42045;52.986;6.014;2023-08-17T10:21:36;3.80;;;1.60;;
56161;SDS011;42045;52.986;6.014;2023-08-17T10:24:09;4.38;;;1.65;;
56161;SDS011;42045;52.986;6.014;2023-08-17T10:26:36;2.90;;;1.50;;
56161;SDS011;42045;52.986;6.014;2023-08-17T10:29:02;5.18;;;1.73;;
56161;SDS011;42045;52.986;6.014;2023-08-17T10:31:29;4.43;;;1.70;;
56161;SDS011;42045;52.986;6.014;2023-08-17T10:33:55;6.57;;;1.85;;
56161;SDS011;42045;52.986;6.014;2023-08-17T10:36:22;4.00;;;1.80;;
56161;SDS011;42045;52.986;6.014;2023-08-17T10:39:35;5.43;;;1.90;;
56161;SDS011;42045;52.986;6.014;2023-08-17T10:41:48;5.40;;;1.98;;
56161;SDS011;42045;52.986;6.014;2023-08-17T10:44:18;4.72;;;1.52;;
56161;SDS011;42045;52.986;6.014;2023-08-17T10:49:59;3.63;;;1.77;;
56161;SDS011;42045;52.986;6.014;2023-08-17T10:52:28;4.25;;;1.63;;
56161;SDS011;42045;52.986;6.014;2023-08-17T10:55:01;6.60;;;1.88;;
56161;SDS011;42045;52.986;6.014;2023-08-17T11:00:15;5.18;;;2.00;;
56161;SDS011;42045;52.986;6.014;2023-08-17T11:02:58;7.43;;;2.28;;
56161;SDS011;42045;52.986;6.014;2023-08-17T11:08:03;7.85;;;2.35;;
56161;SDS011;42045;52.986;6.014;2023-08-17T11:10:30;4.30;;;1.95;;
56161;SDS011;42045;52.986;6.014;2023-08-17T11:12:59;6.43;;;2.40;;
56161;SDS011;42045;52.986;6.014;2023-08-17T11:15:26;7.88;;;2.35;;
56161;SDS011;42045;52.986;6.014;2023-08-17T11:18:02;6.10;;;2.10;;
56161;SDS011;42045;52.986;6.014;2023-08-17T11:20:29;6.00;;;2.10;;
56161;SDS011;42045;52.986;6.014;2023-08-17T11:22:54;5.50;;;2.40;;
56161;SDS011;42045;52.986;6.014;2023-08-17T11:25:22;8.15;;;2.13;;
56161;SDS011;42045;52.986;6.014;2023-08-17T11:27:48;4.60;;;1.80;;
56161;SDS011;42045;52.986;6.014;2023-08-17T11:30:13;6.55;;;1.88;;
56161;SDS011;42045;52.986;6.014;2023-08-17T11:32:39;4.70;;;2.00;;
56161;SDS011;42045;52.986;6.014;2023-08-17T11:35:05;2.30;;;1.75;;
56161;SDS011;42045;52.986;6.014;2023-08-17T11:37:31;8.60;;;2.22;;
56161;SDS011;42045;52.986;6.014;2023-08-17T11:39:57;7.18;;;2.20;;
56161;SDS011;42045;52.986;6.014;2023-08-17T11:42:23;5.65;;;1.95;;
56161;SDS011;42045;52.986;6.014;2023-08-17T11:44:50;4.65;;;2.45;;
56161;SDS011;42045;52.986;6.014;2023-08-17T11:47:15;5.03;;;2.38;;
56161;SDS011;42045;52.986;6.014;2023-08-17T11:49:41;10.02;;;2.80;;
56161;SDS011;42045;52.986;6.014;2023-08-17T11:52:09;5.53;;;2.55;;
56161;SDS011;42045;52.986;6.014;2023-08-17T11:54:39;6.18;;;2.45;;
56161;SDS011;42045;52.986;6.014;2023-08-17T11:57:05;5.45;;;2.38;;
56161;SDS011;42045;52.986;6.014;2023-08-17T11:59:31;6.57;;;2.47;;
56161;SDS011;42045;52.986;6.014;2023-08-17T12:01:58;8.73;;;2.10;;
56161;SDS011;42045;52.986;6.014;2023-08-17T12:04:25;7.88;;;2.17;;
56161;SDS011;42045;52.986;6.014;2023-08-17T12:06:51;5.70;;;2.22;;
56161;SDS011;42045;52.986;6.014;2023-08-17T12:09:17;7.43;;;2.15;;
56161;SDS011;42045;52.986;6.014;2023-08-17T12:11:47;4.28;;;1.75;;
56161;SDS011;42045;52.986;6.014;2023-08-17T12:14:12;11.77;;;2.92;;
56161;SDS011;42045;52.986;6.014;2023-08-17T12:16:47;5.55;;;2.38;;
56161;SDS011;42045;52.986;6.014;2023-08-17T12:19:14;7.32;;;2.63;;
56161;SDS011;42045;52.986;6.014;2023-08-17T12:21:42;5.97;;;2.53;;
56161;SDS011;42045;52.986;6.014;2023-08-17T12:24:08;5.70;;;2.72;;
56161;SDS011;42045;52.986;6.014;2023-08-17T12:26:36;7.50;;;2.70;;
56161;SDS011;42045;52.986;6.014;2023-08-17T12:29:05;4.95;;;1.95;;
56161;SDS011;42045;52.986;6.014;2023-08-17T12:31:32;9.18;;;3.10;;
56161;SDS011;42045;52.986;6.014;2023-08-17T12:33:59;5.22;;;2.53;;
56161;SDS011;42045;52.986;6.014;2023-08-17T12:36:24;7.15;;;2.08;;
56161;SDS011;42045;52.986;6.014;2023-08-17T12:38:50;8.35;;;2.58;;
56161;SDS011;42045;52.986;6.014;2023-08-17T12:41:16;4.75;;;2.53;;
56161;SDS011;42045;52.986;6.014;2023-08-17T12:43:42;8.98;;;2.13;;
56161;SDS011;42045;52.986;6.014;2023-08-17T12:46:08;5.18;;;2.10;;
56161;SDS011;42045;52.986;6.014;2023-08-17T12:48:35;5.50;;;2.10;;
56161;SDS011;42045;52.986;6.014;2023-08-17T12:51:01;4.75;;;2.35;;
56161;SDS011;42045;52.986;6.014;2023-08-17T12:53:28;7.20;;;2.30;;
56161;SDS011;42045;52.986;6.014;2023-08-17T12:55:55;6.53;;;2.38;;
56161;SDS011;42045;52.986;6.014;2023-08-17T12:58:21;6.35;;;2.83;;
56161;SDS011;42045;52.986;6.014;2023-08-17T13:00:46;4.95;;;2.65;;
56161;SDS011;42045;52.986;6.014;2023-08-17T13:03:15;6.72;;;2.95;;
56161;SDS011;42045;52.986;6.014;2023-08-17T13:05:42;7.85;;;2.47;;
56161;SDS011;42045;52.986;6.014;2023-08-17T13:08:08;5.05;;;2.50;;
56161;SDS011;42045;52.986;6.014;2023-08-17T13:10:34;8.07;;;3.00;;
56161;SDS011;42045;52.986;6.014;2023-08-17T13:13:00;7.78;;;2.92;;
56161;SDS011;42045;52.986;6.014;2023-08-17T13:15:26;6.53;;;2.55;;
56161;SDS011;42045;52.986;6.014;2023-08-17T13:17:51;8.32;;;2.92;;
56161;SDS011;42045;52.986;6.014;2023-08-17T13:20:17;6.82;;;3.15;;
56161;SDS011;42045;52.986;6.014;2023-08-17T13:22:43;9.50;;;2.80;;
56161;SDS011;42045;52.986;6.014;2023-08-17T13:25:09;7.32;;;2.97;;
56161;SDS011;42045;52.986;6.014;2023-08-17T13:27:34;9.13;;;2.90;;
56161;SDS011;42045;52.986;6.014;2023-08-17T13:30:00;8.20;;;2.80;;
56161;SDS011;42045;52.986;6.014;2023-08-17T13:32:26;7.05;;;2.40;;
56161;SDS011;42045;52.986;6.014;2023-08-17T13:34:52;6.38;;;2.72;;
56161;SDS011;42045;52.986;6.014;2023-08-17T13:37:19;7.38;;;3.10;;
56161;SDS011;42045;52.986;6.014;2023-08-17T13:39:45;6.05;;;2.60;;
56161;SDS011;42045;52.986;6.014;2023-08-17T13:42:11;7.18;;;3.35;;
56161;SDS011;42045;52.986;6.014;2023-08-17T13:44:37;9.32;;;3.17;;
56161;SDS011;42045;52.986;6.014;2023-08-17T13:47:03;6.63;;;2.78;;
56161;SDS011;42045;52.986;6.014;2023-08-17T13:49:29;6.35;;;3.08;;
56161;SDS011;42045;52.986;6.014;2023-08-17T13:51:55;10.88;;;3.25;;
56161;SDS011;42045;52.986;6.014;2023-08-17T13:54:22;5.50;;;3.03;;
56161;SDS011;42045;52.986;6.014;2023-08-17T13:56:48;14.15;;;4.00;;
56161;SDS011;42045;52.986;6.014;2023-08-17T13:59:14;11.30;;;3.40;;
56161;SDS011;42045;52.986;6.014;2023-08-17T14:01:40;6.07;;;3.20;;
56161;SDS011;42045;52.986;6.014;2023-08-17T14:04:06;6.55;;;3.33;;
56161;SDS011;42045;52.986;6.014;2023-08-17T14:06:37;7.72;;;2.83;;
56161;SDS011;42045;52.986;6.014;2023-08-17T14:09:04;6.80;;;2.80;;
56161;SDS011;42045;52.986;6.014;2023-08-17T14:11:30;8.35;;;3.20;;
56161;SDS011;42045;52.986;6.014;2023-08-17T14:13:56;6.75;;;3.35;;
56161;SDS011;42045;52.986;6.014;2023-08-17T14:16:21;7.45;;;3.25;;
56161;SDS011;42045;52.986;6.014;2023-08-17T14:18:47;6.93;;;3.20;;
56161;SDS011;42045;52.986;6.014;2023-08-17T14:21:13;6.88;;;3.17;;
56161;SDS011;42045;52.986;6.014;2023-08-17T14:23:39;6.68;;;3.53;;
56161;SDS011;42045;52.986;6.014;2023-08-17T14:26:05;9.68;;;3.70;;
56161;SDS011;42045;52.986;6.014;2023-08-17T14:28:31;8.15;;;3.30;;
56161;SDS011;42045;52.986;6.014;2023-08-17T14:30:56;6.03;;;2.88;;
56161;SDS011;42045;52.986;6.014;2023-08-17T14:33:22;7.28;;;3.45;;
56161;SDS011;42045;52.986;6.014;2023-08-17T14:35:48;7.22;;;3.42;;
56161;SDS011;42045;52.986;6.014;2023-08-17T14:38:15;6.38;;;3.42;;
56161;SDS011;42045;52.986;6.014;2023-08-17T14:40:42;5.10;;;3.28;;
56161;SDS011;42045;52.986;6.014;2023-08-17T14:43:13;9.18;;;4.07;;
56161;SDS011;42045;52.986;6.014;2023-08-17T14:45:40;7.43;;;3.65;;
56161;SDS011;42045;52.986;6.014;2023-08-17T14:48:06;8.52;;;3.67;;
56161;SDS011;42045;52.986;6.014;2023-08-17T14:50:33;8.20;;;3.88;;
56161;SDS011;42045;52.986;6.014;2023-08-17T14:52:59;11.68;;;3.65;;
56161;SDS011;42045;52.986;6.014;2023-08-17T14:55:27;7.95;;;3.42;;
56161;SDS011;42045;52.986;6.014;2023-08-17T14:57:54;8.00;;;4.05;;